• Join FlightAware (Why Join?)
  • Login
  • US Flag 
09:55AM EST


 

Airport Tracker/Info


-or-


 

Live Flight TrackerFlight Track Log ✈ AWE3874 ✈ 29-Apr-2013 ✈ KMOB - KCLT

Flight Track Log - Related Links

Times and Time Zones

All times are in EDT time to prevent confusion due to time zone crossing. See the AWE3874 flight status page for this flight to view local times or setup timezone preferences in your user account.

Time Position Orientation Groundspeed Altitude Reporting Facility
EDT Latitude Longitude Course Direction KTS MPH feet Rate Location/Type
03:47PM 30.6497 -88.1536 91° East 222 255 4,200  Level Houston Center
03:48PM 30.6986 -88.1100 37° Northeast 227 261 6,600 2,220 Climbing Houston Center
03:49PM 30.7522 -88.0722 31° Northeast 233 268 8,800 1,680 Climbing Houston Center
03:50PM 30.8156 -88.0414 23° Northeast 246 283 10,100 1,800 Climbing Houston Center
03:51PM 30.9081 -87.9997 21° North 296 341 12,600 2,160 Climbing Houston Center
03:52PM 30.9878 -87.9644 21° North 310 357 14,600 1,860 Climbing Houston Center
03:53PM 31.0553 -87.9003 39° Northeast 329 379 16,500 1,620 Climbing Houston Center
03:54PM 31.1147 -87.8211 49° Northeast 327 376 18,000 1,200 Climbing Houston Center
03:55PM 31.1778 -87.7353 49° Northeast 343 395 19,100 1,200 Climbing Houston Center
03:56PM 31.2575 -87.6281 49° Northeast 361 415 20,500 1,140 Climbing Houston Center
03:57PM 31.3264 -87.5350 49° Northeast 373 429 21,500 900 Climbing Houston Center
03:58PM 31.3883 -87.4564 47° Northeast 371 427 22,200 840 Climbing Atlanta Center
03:59PM 31.4581 -87.3569 51° Northeast 382 440 23,100 900 Climbing Atlanta Center
04:00PM 31.5153 -87.2419 60° Northeast 388 447 24,000 780 Climbing Atlanta Center
04:01PM 31.5703 -87.1244 61° Northeast 400 460 24,700 720 Climbing Atlanta Center
04:02PM 31.6256 -87.0044 62° Northeast 406 467 25,500 780 Climbing Atlanta Center
04:03PM 31.6719 -86.8914 64° Northeast 417 480 26,300 600 Climbing Atlanta Center
04:04PM 31.7269 -86.7686 62° Northeast 417 480 26,800 480 Climbing Atlanta Center
04:05PM 31.7861 -86.6433 61° Northeast 422 486 27,300 540 Climbing Atlanta Center
04:06PM 31.8428 -86.5178 62° Northeast 428 493 27,900 480 Climbing Atlanta Center
04:07PM 31.9017 -86.3850 62° Northeast 433 498 28,300 420 Climbing Atlanta Center
04:08PM 31.9669 -86.2397 62° Northeast 444 511 28,800 540 Climbing Atlanta Center
04:09PM 32.0258 -86.1039 63° Northeast 449 517 29,400 540 Climbing Atlanta Center
04:10PM 32.0864 -85.9756 61° Northeast 449 517 29,900 540 Climbing Atlanta Center
04:11PM 32.1489 -85.8419 61° Northeast 449 517 30,500 540 Climbing Atlanta Center
04:12PM 32.2050 -85.7081 64° Northeast 449 517 31,000 480 Climbing Atlanta Center
04:13PM 32.2653 -85.5742 62° Northeast 449 517 31,500 540 Climbing Atlanta Center
04:14PM 32.3231 -85.4422 63° Northeast 449 517 32,100 420 Climbing Atlanta Center
04:15PM 32.3786 -85.3128 63° Northeast 444 511 32,400 360 Climbing Atlanta Center
04:16PM 32.4386 -85.1808 62° Northeast 444 511 32,900 300 Climbing Atlanta Center
04:17PM 32.4939 -85.0461 64° Northeast 444 511 33,000  Climbing Atlanta Center
04:18PM 32.5575 -84.9136 60° Northeast 444 511 33,000  Level Atlanta Center
04:19PM 32.6083 -84.7983 62° Northeast 444 511 33,000  Level Atlanta Center
04:20PM 32.6656 -84.6631 63° Northeast 444 511 33,000  Level Atlanta Center
04:21PM 32.7225 -84.5350 62° Northeast 444 511 33,000  Level Atlanta Center
04:22PM 32.7772 -84.4069 63° Northeast 444 511 33,000  Level Atlanta Center
04:23PM 32.8358 -84.2664 64° Northeast 438 504 33,000  Level Atlanta Center
04:24PM 32.8861 -84.1525 62° Northeast 433 498 33,000  Level Atlanta Center
04:25PM 32.9425 -84.0214 63° Northeast 433 498 33,000  Level Atlanta Center
04:26PM 32.9967 -83.8903 64° Northeast 428 493 33,000  Level Atlanta Center
04:27PM 33.0508 -83.7564 64° Northeast 434 499 33,000  Level Atlanta Center
04:28PM 33.1150 -83.6047 63° Northeast 450 518 33,000  Level Atlanta Center
04:29PM 33.1731 -83.4656 63° Northeast 454 522 33,000  Level Atlanta Center
04:30PM 33.2306 -83.3261 64° Northeast 454 522 33,000 -300 Level Atlanta Center
04:31PM 33.2861 -83.1914 64° Northeast 454 522 32,500 -960 Descending Atlanta Center
04:32PM 33.3436 -83.0542 63° Northeast 454 522 31,100 -1,320 Descending Atlanta Center
04:33PM 33.3928 -82.9342 64° Northeast 447 514 29,900 -1,080 Descending Atlanta Center
04:34PM 33.4542 -82.8039 61° Northeast 440 506 29,000 -1,080 Descending Atlanta Center
04:35PM 33.5511 -82.7053 40° Northeast 440 506 27,800 -1,440 Descending Atlanta Center
04:36PM 33.6606 -82.5986 39° Northeast 484 557 26,200 -1,500 Descending Atlanta Center
04:37PM 33.7658 -82.4969 39° Northeast 495 570 24,800 -1,140 Descending Atlanta Center
04:38PM 33.8586 -82.4078 39° Northeast 455 524 24,000 -420 Descending Atlanta Center
04:39PM 33.9492 -82.3208 39° Northeast 418 481 24,000  Level Atlanta Center
04:40PM 34.0417 -82.2289 39° Northeast 405 466 24,000  Level Atlanta Center
04:41PM 34.1261 -82.1442 40° Northeast 397 457 24,000 -300 Level Atlanta Center
04:42PM 34.2103 -82.0619 39° Northeast 397 457 23,500 -1,080 Descending Atlanta Center
04:43PM 34.2925 -81.9794 40° Northeast 392 451 21,900 -1,800 Descending Atlanta Center
04:44PM 34.3725 -81.8972 40° Northeast 385 443 20,000 -1,860 Descending Atlanta Center
04:45PM 34.4483 -81.8272 37° Northeast 366 421 18,200 -1,800 Descending Atlanta Center
04:46PM 34.5181 -81.7572 40° Northeast 341 392 16,400 -1,800 Descending Atlanta Center
04:47PM 34.5858 -81.6922 38° Northeast 327 376 14,600 -1,800 Descending Atlanta Center
04:48PM 34.6556 -81.6247 39° Northeast 316 364 12,800 -1,380 Descending Atlanta Center
04:49PM 34.7228 -81.5544 41° Northeast 316 364 11,900 -480 Descending Atlanta Center
04:50PM 34.7839 -81.4794 45° Northeast 317 365 11,900 -420 Level Atlanta Center
04:51PM 34.8428 -81.4042 46° Northeast 312 359 11,100 -960 Descending Atlanta Center
04:52PM 34.9017 -81.3289 46° Northeast 301 346 10,000 -840 Descending Atlanta Center
04:53PM 34.9219 -81.3003 49° Northeast 304 350 10,000  Level Atlanta Center
04:53PM 34.9625 -81.2508 45° Northeast 306 352 10,000  Level Atlanta Center
04:54PM 35.0192 -81.1756 47° Northeast 306 352 10,000 -420 Level Atlanta Center
04:55PM 35.0903 -81.0867 46° Northeast 307 353 9,100 -540 Descending Atlanta Center
04:56PM 35.1503 -81.0667 15° North 280 322 9,000 -60 Descending Atlanta Center
04:57PM 35.2275 -81.0717 357° North 274 315 9,000 -480 Level Atlanta Center
04:59PM 35.2969 -81.0056 38° Northeast 224 258 7,900 -1,200 Descending Atlanta Center
05:00PM 35.3347 -80.9378 56° Northeast 243 280 6,300 -1,440 Descending Atlanta Center
05:01PM 35.3747 -80.8678 55° Northeast 253 291 5,000 -1,140 Descending Atlanta Center
05:02PM 35.4044 -80.8028 61° Northeast 235 270 4,000 -600 Descending Atlanta Center
05:03PM 35.3597 -80.7664 146° Southeast 198 228 3,900 -120 Descending Atlanta Center